Blanding, UT

12:43 PM MDT on September 01, 2014 (GMT -0600)
Blanding | Change Station
CLOSE
Current Station
Airport
Location: Blanding,
Elevation: 5866 ft
Nearby Weather Stations

Elev 5866 ft 37.58 °N, 109.48 °W | Updated 8 minutes ago

Clear
Clear
81 °F
Feels Like 81 °F
N
13
Wind Variable Wind from SSW
Gusts 20 mph

Today
High -- | Low -- °F
--% Chance of Precip.
Yesterday
High -- | Low -- °F
Precip. -- in
6:48 AM 7:46 PM
Waxing Crescent, 43% visible
Pressure 30.19 in
Visibility 10.0 miles
Clouds Clear
Dew Point 35 °F
Humidity 19%
Rainfall 0.00 in
Snow Depth Not available.
UV 10 out of 12
Pollen 9.20 out of 12
Air Quality Not available.
Flu Activity Not available.
METAR KBDG 011835Z AUTO 20011G17KT 10SM CLR 27/02 A3019 RMK AO1 T02730015

More Conditions Fewer Conditions

Pressure 30.19 in
Visibility 10.0 miles
Clouds Clear
Dew Point 35 °F
Humidity 19%
Rainfall 0.00 in
Snow Depth Not available.
UV 10 out of 12
Pollen 9.20 out of 12
Air Quality Not available.
Flu Activity Not available.
METAR KBDG 011835Z AUTO 20011G17KT 10SM CLR 27/02 A3019 RMK AO1 T02730015

More Conditions Fewer Conditions

10-Day Weather Forecast

Almanac

Astronomy

Sep. 01, 2014 Rise Set
Actual Time 6:48 AM MDT 7:46 PM MDT
Civil Twilight 6:21 AM MDT 8:13 PM MDT
Nautical Twilight 5:49 AM MDT 8:45 PM MDT
Astronomical Twilight 5:16 AM MDT 9:18 PM MDT
Moon 1:29 PM MDT 11:58 PM MDT
Length of Visible Light 13h 52m
Length of Day
12h 58m
Tomorrow will be 2m 19s shorter.
Waxing Crescent, 43% of the Moon is Illuminated
Today
Waxing Crescent
Sep 2
First Quarter
Sep 8
Full
Sep 15
Last Quarter
Sep 24
New

Today's Extremes

State Highs State Lows

Community

WunderPhotos

Upload Photos

1,749,359 photos uploaded!

Nearby

Snow Depth

Station Depth Elevation
Gooseberry R.S. 0 in 7920 ft
Agua Canyon 3 in 8900 ft
Long Valley Jct 0 in 7360 ft
Clear Creek #2 1 in 8300 ft
Midway Valley 2 in 9800 ft

Earthquake Activity

City Distance Mag. Time & Date
No recent earthquake activity has been reported nearby.
Minimum magnitude displayed is 2.5.

Coastal Water Temperatures

Place Temperature
No Stations Reporting

Nearby Weather Stations